Time;durP1;ratioP1;P1;durP2;ratioP2;P2;SDS_P1;SDS_P2;PMS_P1;PMS_P2;Temp;Humidity;BMP_temperature;BMP_pressure;BME280_temperature;BME280_humidity;BME280_pressure;Samples;Min_cycle;Max_cycle;Signal;HPM_P1;HPM_P2
2021/08/02 00:01:55;;;;;;;17.15;15.32;;;;;;;22.46;71.63;100429.37;1722249;83;21015;-77
2021/08/02 00:04:23;;;;;;;17.40;15.72;;;;;;;22.45;71.83;100433.03;1722128;83;21039;-76
2021/08/02 00:06:52;;;;;;;17.80;16.07;;;;;;;22.44;71.63;100430.88;1722350;83;20845;-78
2021/08/02 00:09:24;;;;;;;18.52;15.83;;;;;;;22.45;71.25;100432.52;1722209;83;21422;-77
2021/08/02 00:11:57;;;;;;;18.55;15.98;;;;;;;22.46;70.69;100429.37;1722113;82;21027;-77
2021/08/02 00:14:24;;;;;;;15.95;14.33;;;;;;;22.46;70.92;100422.69;1721779;83;21453;-76
2021/08/02 00:16:52;;;;;;;16.42;14.75;;;;;;;22.45;70.86;100427.17;1722090;83;21033;-78
2021/08/02 00:19:20;;;;;;;16.95;15.08;;;;;;;22.45;70.63;100425.02;1722378;83;20868;-78
2021/08/02 00:21:48;;;;;;;18.32;16.35;;;;;;;22.44;71.19;100415.34;1722293;82;21377;-78
2021/08/02 00:24:16;;;;;;;17.37;14.70;;;;;;;22.42;71.25;100402.15;1720184;83;21004;-79
2021/08/02 00:26:43;;;;;;;17.05;15.35;;;;;;;22.41;71.67;100400.50;1709096;84;20956;-78
2021/08/02 00:29:11;;;;;;;16.42;14.80;;;;;;;22.41;71.71;100397.83;1709218;83;20948;-79
2021/08/02 00:31:39;;;;;;;16.87;15.28;;;;;;;22.43;71.87;100400.30;1709328;83;21327;-77
2021/08/02 00:34:08;;;;;;;17.82;15.93;;;;;;;22.44;71.97;100395.30;1681517;84;20944;-77
2021/08/02 00:36:55;;;;;;;18.37;16.35;;;;;;;22.47;70.72;100402.45;1708687;84;20953;-78
2021/08/02 00:39:34;;;;;;;16.20;14.60;;;;;;;22.49;70.73;100407.12;1708603;84;20948;-78
2021/08/02 00:42:58;;;;;;;19.45;17.40;;;;;;;22.49;70.91;100405.78;1708553;84;21006;-77
2021/08/02 00:45:33;;;;;;;18.12;16.23;;;;;;;22.48;71.16;100410.81;1647100;84;21444;-77
2021/08/02 00:48:06;;;;;;;21.68;17.00;;;;;;;22.47;71.36;100413.65;1708632;84;21911;-77
2021/08/02 00:50:41;;;;;;;18.35;15.13;;;;;;;22.45;71.46;100412.98;1708553;83;20948;-77
2021/08/02 00:53:19;;;;;;;18.15;15.53;;;;;;;22.40;71.66;100416.19;1708634;84;20889;-78
2021/08/02 00:55:50;;;;;;;16.62;14.58;;;;;;;22.39;72.13;100412.34;1680408;83;20993;-77
2021/08/02 00:58:21;;;;;;;19.05;15.40;;;;;;;22.37;72.73;100412.54;1708608;83;20904;-77
2021/08/02 01:00:48;;;;;;;17.57;15.72;;;;;;;22.38;72.90;100416.03;1708552;84;21022;-77
2021/08/02 01:03:16;;;;;;;18.70;16.85;;;;;;;22.39;72.90;100415.02;1708569;84;20996;-78
2021/08/02 01:05:50;;;;;;;18.45;16.65;;;;;;;22.41;72.75;100422.36;1708776;84;20996;-78
2021/08/02 01:08:29;;;;;;;16.25;14.75;;;;;;;22.41;72.75;100421.02;1708500;84;20913;-78
2021/08/02 01:11:01;;;;;;;16.02;14.35;;;;;;;22.41;72.63;100430.37;1708838;84;20941;-77
2021/08/02 01:13:33;;;;;;;17.52;15.70;;;;;;;22.37;72.46;100436.59;1708445;83;20893;-78
2021/08/02 01:16:04;;;;;;;18.05;16.07;;;;;;;22.31;72.53;100436.77;1708496;84;20853;-77
2021/08/02 01:18:33;;;;;;;16.27;14.68;;;;;;;22.27;72.97;100435.44;1708530;84;20980;-76
2021/08/02 01:21:05;;;;;;;19.87;15.53;;;;;;;22.26;73.15;100436.45;1708888;84;20977;-78
2021/08/02 01:23:32;;;;;;;16.05;14.35;;;;;;;22.24;73.30;100449.15;1708635;84;21480;-78
2021/08/02 01:26:08;;;;;;;18.50;16.62;;;;;;;22.22;73.37;100453.00;1712895;83;21120;-78
2021/08/02 01:29:15;;;;;;;17.52;15.72;;;;;;;22.19;73.50;100452.81;1714542;83;20968;-78
2021/08/02 01:31:42;;;;;;;18.70;16.90;;;;;;;22.15;73.56;100450.98;1715512;83;21484;-78
2021/08/02 01:34:09;;;;;;;20.48;16.40;;;;;;;22.12;73.95;100459.83;1716286;83;20885;-79
2021/08/02 01:36:36;;;;;;;17.02;15.28;;;;;;;22.06;73.59;100447.19;1717387;83;22183;-79
2021/08/02 01:39:03;;;;;;;17.70;14.35;;;;;;;22.03;73.84;100452.84;1717242;83;21139;-78
2021/08/02 01:41:31;;;;;;;19.12;16.57;;;;;;;21.99;73.84;100448.37;1717202;83;20873;-77
2021/08/02 01:43:59;;;;;;;22.85;15.45;;;;;;;22.00;73.88;100451.86;1717082;83;20901;-78
2021/08/02 01:46:38;;;;;;;17.27;15.53;;;;;;;22.02;74.20;100451.20;1715782;83;20937;-77
2021/08/02 01:49:15;;;;;;;19.55;16.02;;;;;;;22.02;74.39;100460.03;1714149;83;20944;-78
2021/08/02 01:51:47;;;;;;;19.60;17.48;;;;;;;22.03;74.31;100451.52;1713945;83;21096;-78
2021/08/02 01:54:47;;;;;;;19.30;17.17;;;;;;;22.01;74.33;100456.19;1713989;83;20937;-79
2021/08/02 01:57:21;;;;;;;23.20;17.15;;;;;;;21.97;74.11;100455.72;1714485;83;20948;-79
2021/08/02 02:00:12;;;;;;;18.50;16.45;;;;;;;21.97;73.74;100455.72;1713444;83;21106;-79
2021/08/02 02:03:14;;;;;;;20.37;16.15;;;;;;;21.91;73.96;100451.05;1714203;83;20980;-79
2021/08/02 02:05:51;;;;;;;17.75;15.40;;;;;;;21.89;74.19;100453.87;1683189;83;21203;-78
2021/08/02 02:08:25;;;;;;;16.17;14.55;;;;;;;21.88;74.12;100456.73;1714449;83;21442;-79
2021/08/02 02:10:56;;;;;;;19.17;15.50;;;;;;;21.85;74.17;100453.05;1714253;83;20941;-79
2021/08/02 02:13:33;;;;;;;33.28;23.52;;;;;;;21.83;74.21;100454.58;1687714;83;20913;-79
2021/08/02 02:16:02;;;;;;;29.52;26.42;;;;;;;21.83;74.20;100456.39;1688070;83;20909;-78
2021/08/02 02:18:31;;;;;;;17.95;16.05;;;;;;;21.85;74.46;100461.89;1688131;83;21133;-79
2021/08/02 02:21:00;;;;;;;20.68;17.40;;;;;;;21.87;74.29;100451.05;1714074;83;21541;-79
2021/08/02 02:23:27;;;;;;;18.48;16.30;;;;;;;21.87;74.57;100457.73;1714100;83;20928;-79
2021/08/02 02:25:54;;;;;;;21.60;18.98;;;;;;;21.89;74.21;100454.39;1711039;83;20988;-78
2021/08/02 02:28:22;;;;;;;21.60;18.02;;;;;;;21.91;74.11;100454.55;1708621;84;20913;-79
2021/08/02 02:30:50;;;;;;;19.12;17.17;;;;;;;21.91;74.23;100460.39;1708612;84;21549;-79
2021/08/02 02:33:18;;;;;;;20.30;16.30;;;;;;;21.92;74.21;100454.03;1708603;83;21347;-78
2021/08/02 02:35:47;;;;;;;19.20;16.20;;;;;;;21.90;74.23;100452.06;1708565;84;20912;-77
2021/08/02 02:38:15;;;;;;;19.15;16.87;;;;;;;21.85;73.88;100451.72;1708482;84;20917;-78
2021/08/02 02:40:44;;;;;;;20.48;16.15;;;;;;;21.85;74.30;100452.55;1708496;84;20984;-78
2021/08/02 02:43:15;;;;;;;23.67;16.90;;;;;;;21.91;74.44;100459.06;1680879;84;21816;-79
2021/08/02 02:45:44;;;;;;;18.12;16.23;;;;;;;21.97;74.15;100461.05;1708585;84;21422;-80
2021/08/02 02:48:11;;;;;;;18.65;16.60;;;;;;;21.98;73.83;100460.03;1680814;84;20948;-79
2021/08/02 02:50:38;;;;;;;19.23;17.32;;;;;;;22.01;73.94;100465.06;1708540;84;20908;-79
2021/08/02 02:53:06;;;;;;;22.75;18.90;;;;;;;22.04;73.73;100458.53;1680887;84;20980;-78
2021/08/02 02:55:33;;;;;;;29.67;18.05;;;;;;;22.08;73.60;100461.20;1708474;84;21013;-79
2021/08/02 02:58:03;;;;;;;22.10;16.17;;;;;;;22.10;73.31;100458.69;1708406;83;20933;-78
2021/08/02 03:00:31;;;;;;;28.10;16.97;;;;;;;22.11;72.98;100454.17;1708474;84;21402;-79
2021/08/02 03:02:58;;;;;;;31.10;17.10;;;;;;;22.10;73.25;100457.35;1680515;83;21052;-78
2021/08/02 03:05:26;;;;;;;18.70;16.75;;;;;;;22.08;73.44;100459.87;1708741;83;20976;-79
2021/08/02 03:07:59;;;;;;;44.27;36.75;;;;;;;22.07;73.61;100462.19;1708542;84;20957;-80
2021/08/02 03:10:28;;;;;;;73.83;61.98;;;;;;;22.07;73.63;100462.19;1708588;84;21390;-80
2021/08/02 03:12:58;;;;;;;48.10;42.93;;;;;;;22.08;73.46;100466.55;1708527;84;20897;-79
2021/08/02 03:15:24;;;;;;;52.23;47.20;;;;;;;22.08;73.39;100465.20;1708707;84;20941;-78
2021/08/02 03:17:51;;;;;;;74.58;67.47;;;;;;;22.07;73.53;100456.84;1708791;84;21422;-79
2021/08/02 03:20:19;;;;;;;36.30;31.02;;;;;;;22.05;73.71;100462.86;1708638;83;21132;-78
2021/08/02 03:23:00;;;;;;;32.80;29.32;;;;;;;22.03;73.92;100456.85;1708648;83;21429;-78
2021/08/02 03:25:58;;;;;;;24.77;22.22;;;;;;;22.07;73.82;100462.19;1708462;83;20863;-78
2021/08/02 03:28:37;;;;;;;26.68;20.35;;;;;;;22.14;73.75;100463.16;1693570;83;20948;-78
2021/08/02 03:31:05;;;;;;;30.65;19.30;;;;;;;22.19;73.84;100461.31;1713875;83;21493;-77
2021/08/02 03:33:35;;;;;;;25.27;19.62;;;;;;;22.24;73.58;100461.69;1714063;83;21187;-79
2021/08/02 03:36:09;;;;;;;26.35;18.02;;;;;;;22.26;73.51;100456.49;1714072;83;21003;-78
2021/08/02 03:38:36;;;;;;;30.35;19.00;;;;;;;22.26;73.82;100463.17;1714282;83;20929;-76
2021/08/02 03:41:04;;;;;;;26.65;18.95;;;;;;;22.28;73.95;100463.84;1714096;83;21490;-76
2021/08/02 03:43:36;;;;;;;26.97;19.70;;;;;;;22.35;73.93;100459.46;1714161;83;20928;-78
2021/08/02 03:46:04;;;;;;;27.05;20.70;;;;;;;22.43;73.78;100463.92;1714210;83;21545;-79
2021/08/02 03:48:32;;;;;;;23.52;18.62;;;;;;;22.49;73.70;100461.08;1714083;83;20865;-78
2021/08/02 03:50:59;;;;;;;27.62;20.65;;;;;;;22.52;73.50;100463.39;1714402;83;21307;-78
2021/08/02 03:53:26;;;;;;;30.17;20.02;;;;;;;22.58;73.41;100460.03;1714142;83;20925;-79
2021/08/02 03:55:54;;;;;;;29.90;20.77;;;;;;;22.65;73.54;100458.31;1714121;83;21024;-79
2021/08/02 03:58:21;;;;;;;26.62;19.37;;;;;;;22.73;73.56;100463.63;1714156;83;21146;-78
2021/08/02 04:00:47;;;;;;;32.55;19.02;;;;;;;22.81;73.36;100465.92;1714234;83;20940;-79
2021/08/02 04:03:15;;;;;;;23.10;16.97;;;;;;;22.88;72.93;100467.73;1714293;83;21421;-80
2021/08/02 04:05:42;;;;;;;30.17;20.32;;;;;;;22.96;72.37;100462.83;1714555;83;20996;-80
2021/08/02 04:08:09;;;;;;;28.07;19.92;;;;;;;23.03;72.53;100469.16;1714344;83;20912;-80
2021/08/02 04:10:36;;;;;;;35.60;21.20;;;;;;;23.13;72.07;100470.28;1714239;83;21980;-79
2021/08/02 04:13:03;;;;;;;31.35;19.32;;;;;;;23.22;72.16;100473.23;1714187;83;20991;-78
2021/08/02 04:15:31;;;;;;;28.02;18.75;;;;;;;23.33;71.84;100473.32;1714402;83;21449;-77
2021/08/02 04:17:57;;;;;;;34.08;19.75;;;;;;;23.45;70.76;100473.72;1714284;83;20948;-76
2021/08/02 04:20:24;;;;;;;32.63;18.80;;;;;;;23.55;71.22;100467.63;1714453;83;20984;-76
2021/08/02 04:22:51;;;;;;;26.55;19.20;;;;;;;23.65;70.53;100474.87;1714322;83;21520;-77
2021/08/02 04:25:19;;;;;;;27.73;22.62;;;;;;;23.76;70.65;100474.47;1713903;83;20892;-80
2021/08/02 04:27:46;;;;;;;32.00;22.65;;;;;;;23.91;70.80;100475.02;1708578;84;20944;-79
2021/08/02 04:30:14;;;;;;;36.23;20.35;;;;;;;24.13;70.44;100479.98;1708709;83;21020;-77
2021/08/02 04:32:45;;;;;;;37.20;19.07;;;;;;;24.49;69.94;100483.28;1708758;84;20948;-80
2021/08/02 04:35:12;;;;;;;25.23;19.65;;;;;;;24.92;68.72;100478.86;1708577;84;21819;-79
2021/08/02 04:37:39;;;;;;;39.20;19.10;;;;;;;25.45;66.87;100469.17;1708658;83;20862;-81
2021/08/02 04:40:08;;;;;;;31.70;18.75;;;;;;;25.97;64.75;100468.48;1708814;83;21417;-78
2021/08/02 04:42:37;;;;;;;24.87;19.70;;;;;;;26.49;63.70;100467.09;1708546;84;20948;-79
2021/08/02 04:45:05;;;;;;;30.00;20.30;;;;;;;26.98;62.48;100466.56;1708617;83;20949;-80
2021/08/02 04:47:32;;;;;;;29.02;20.95;;;;;;;27.45;61.17;100465.60;1708540;84;21142;-79
2021/08/02 04:49:59;;;;;;;26.27;20.32;;;;;;;27.90;59.89;100469.02;1708628;84;20897;-79
2021/08/02 04:52:26;;;;;;;31.73;19.50;;;;;;;28.35;56.95;100458.84;1708540;84;20929;-78
2021/08/02 04:54:56;;;;;;;21.68;19.37;;;;;;;28.78;56.47;100459.64;1708523;84;21445;-77
2021/08/02 04:57:23;;;;;;;27.60;19.15;;;;;;;29.18;54.07;100462.12;1708545;84;20913;-79
2021/08/02 04:59:50;;;;;;;19.75;17.35;;;;;;;29.58;52.35;100455.88;1708657;84;21131;-80
2021/08/02 05:02:17;;;;;;;27.82;19.20;;;;;;;29.95;51.06;100461.39;1708725;83;20937;-79
2021/08/02 05:04:44;;;;;;;28.90;18.12;;;;;;;30.31;51.01;100453.83;1709171;84;20988;-80
2021/08/02 05:07:10;;;;;;;44.05;20.92;;;;;;;30.68;51.27;100452.94;1710606;84;20913;-76
2021/08/02 05:09:37;;;;;;;26.15;17.40;;;;;;;31.04;50.46;100460.18;1711808;81;20989;-80
2021/08/02 05:12:06;;;;;;;29.32;18.87;;;;;;;31.37;49.55;100454.24;1711665;81;21089;-79
2021/08/02 05:14:32;;;;;;;37.30;18.60;;;;;;;31.65;49.01;100451.39;1708640;84;20988;-80
2021/08/02 05:17:01;;;;;;;20.70;16.93;;;;;;;31.94;48.26;100455.56;1708598;84;20936;-79
2021/08/02 05:19:28;;;;;;;21.77;18.10;;;;;;;32.21;46.16;100452.64;1708601;84;21118;-79
2021/08/02 05:21:55;;;;;;;21.57;15.58;;;;;;;32.47;46.26;100454.53;1708707;84;20901;-79
2021/08/02 05:24:22;;;;;;;22.05;16.05;;;;;;;32.72;43.70;100456.12;1708636;83;21912;-80
2021/08/02 05:26:49;;;;;;;19.07;15.43;;;;;;;32.93;41.83;100455.44;1711504;83;20893;-80
2021/08/02 05:29:16;;;;;;;25.08;15.93;;;;;;;33.16;40.81;100452.33;1714357;83;20972;-80
2021/08/02 05:31:43;;;;;;;27.62;15.78;;;;;;;33.35;40.06;100459.69;1714518;83;21004;-80
2021/08/02 05:34:11;;;;;;;44.38;18.25;;;;;;;33.59;40.84;100463.91;1714201;83;20999;-79
2021/08/02 05:36:39;;;;;;;38.20;16.40;;;;;;;33.79;41.42;100452.50;1714121;83;21954;-79
2021/08/02 05:39:09;;;;;;;33.45;15.60;;;;;;;34.02;41.80;100458.83;1714063;83;20897;-79
2021/08/02 05:41:35;;;;;;;31.05;16.80;;;;;;;34.21;41.62;100461.54;1714783;83;21039;-74
2021/08/02 05:44:03;;;;;;;32.53;15.98;;;;;;;34.42;41.62;100455.00;1714223;83;20979;-77
2021/08/02 05:46:30;;;;;;;20.27;13.15;;;;;;;34.61;41.01;100450.02;1714393;83;20869;-76
2021/08/02 05:48:57;;;;;;;16.15;12.37;;;;;;;34.80;39.12;100459.52;1714478;83;21178;-74
2021/08/02 05:51:24;;;;;;;22.07;13.18;;;;;;;35.01;37.90;100452.35;1688104;83;21112;-78
2021/08/02 05:53:51;;;;;;;18.15;13.03;;;;;;;35.18;37.67;100452.27;1714185;83;20845;-76
2021/08/02 05:56:18;;;;;;;14.73;12.25;;;;;;;35.34;35.96;100455.13;1688040;83;20980;-76
2021/08/02 05:58:45;;;;;;;20.40;13.55;;;;;;;35.49;35.47;100456.05;1714203;83;21506;-76
2021/08/02 06:01:12;;;;;;;22.37;13.15;;;;;;;35.68;35.56;100452.38;1714484;83;21535;-70
2021/08/02 06:03:39;;;;;;;17.23;13.28;;;;;;;35.90;34.59;100447.32;1714128;83;20897;-70
2021/08/02 06:06:06;;;;;;;20.75;12.55;;;;;;;36.07;34.34;100456.70;1714110;83;20935;-68
2021/08/02 06:08:38;;;;;;;20.32;12.98;;;;;;;36.27;33.74;100448.61;1714411;83;21031;-68
2021/08/02 06:11:05;;;;;;;17.50;11.78;;;;;;;36.43;33.75;100444.57;1714339;83;21393;-68
2021/08/02 06:13:32;;;;;;;18.65;12.88;;;;;;;36.63;35.03;100445.20;1714463;83;22229;-69
2021/08/02 06:16:00;;;;;;;19.65;12.88;;;;;;;36.78;34.87;100449.88;1714107;83;20901;-69
2021/08/02 06:18:27;;;;;;;16.75;13.72;;;;;;;36.96;35.84;100452.63;1714381;83;20914;-73
2021/08/02 06:20:54;;;;;;;14.63;12.13;;;;;;;37.13;35.65;100454.04;1714083;83;20957;-74
2021/08/02 06:23:21;;;;;;;13.98;12.43;;;;;;;37.30;33.92;100449.64;1714283;83;20889;-73
2021/08/02 06:25:48;;;;;;;15.05;12.37;;;;;;;37.49;32.97;100436.78;1714158;83;21169;-74
2021/08/02 06:28:15;;;;;;;14.95;13.30;;;;;;;37.69;32.82;100433.20;1713956;83;20976;-72
2021/08/02 06:30:42;;;;;;;14.05;12.43;;;;;;;37.89;33.20;100435.06;1714097;83;20908;-74
2021/08/02 06:33:09;;;;;;;16.77;12.47;;;;;;;38.04;32.66;100421.88;1714245;83;20873;-75
2021/08/02 06:35:36;;;;;;;15.90;10.63;;;;;;;38.15;31.08;100413.87;1714169;83;20983;-72
2021/08/02 06:38:04;;;;;;;20.08;12.90;;;;;;;38.26;30.27;100418.77;1714123;83;21158;-72
2021/08/02 06:40:31;;;;;;;18.87;12.80;;;;;;;38.40;30.53;100420.32;1713983;83;20917;-72
2021/08/02 06:42:58;;;;;;;19.95;13.70;;;;;;;38.61;30.08;100426.54;1714385;83;20909;-83
2021/08/02 06:45:25;;;;;;;18.17;13.72;;;;;;;38.75;29.38;100419.30;1713972;83;21011;-72
2021/08/02 06:47:54;;;;;;;13.40;11.85;;;;;;;38.84;29.60;100417.58;1714204;83;20987;-71
2021/08/02 06:50:20;;;;;;;15.63;11.20;;;;;;;39.00;29.04;100419.70;1713993;83;21165;-74
2021/08/02 06:52:47;;;;;;;11.83;10.53;;;;;;;39.15;28.29;100419.58;1713966;83;20881;-70
2021/08/02 06:55:14;;;;;;;14.70;11.75;;;;;;;39.25;27.97;100415.91;1714104;83;21492;-71
2021/08/02 06:57:41;;;;;;;11.73;10.58;;;;;;;39.31;28.08;100416.66;1714176;83;20920;-71
2021/08/02 07:00:09;;;;;;;17.48;12.82;;;;;;;39.42;28.09;100420.16;1714038;83;21423;-69
2021/08/02 07:02:37;;;;;;;14.58;10.78;;;;;;;39.57;27.97;100419.44;1713774;83;21223;-68
2021/08/02 07:05:05;;;;;;;12.70;11.25;;;;;;;39.77;27.67;100423.06;1714051;83;21458;-71
2021/08/02 07:07:32;;;;;;;11.65;10.28;;;;;;;39.89;27.45;100419.39;1713796;83;20960;-71
2021/08/02 07:09:59;;;;;;;13.62;11.63;;;;;;;40.02;27.54;100417.84;1714076;83;20949;-71
2021/08/02 07:12:26;;;;;;;12.53;10.85;;;;;;;40.16;27.41;100420.14;1714059;83;21460;-69
2021/08/02 07:14:53;;;;;;;12.30;11.00;;;;;;;40.27;27.50;100422.23;1714373;83;21774;-69
2021/08/02 07:17:21;;;;;;;15.28;10.88;;;;;;;40.37;27.32;100419.87;1714000;83;20928;-71
2021/08/02 07:19:47;;;;;;;13.03;10.50;;;;;;;40.45;26.83;100414.29;1714392;83;21471;-70
2021/08/02 07:22:14;;;;;;;12.68;9.60;;;;;;;40.52;27.39;100411.41;1713992;83;21838;-70
2021/08/02 07:24:41;;;;;;;13.20;10.45;;;;;;;40.68;27.47;100410.61;1714297;83;20913;-68
2021/08/02 07:27:07;;;;;;;10.20;9.23;;;;;;;40.88;27.29;100412.81;1715157;83;22174;-69
2021/08/02 07:29:34;;;;;;;10.63;9.18;;;;;;;41.05;26.15;100408.95;1717293;83;20949;-69
2021/08/02 07:32:01;;;;;;;10.80;8.93;;;;;;;41.16;26.28;100407.67;1717208;83;20940;-69
2021/08/02 07:34:27;;;;;;;10.23;9.10;;;;;;;41.33;26.18;100407.64;1717317;83;20948;-71
2021/08/02 07:36:55;;;;;;;13.45;9.25;;;;;;;41.54;26.67;100410.84;1716889;83;20984;-69
2021/08/02 07:39:21;;;;;;;10.35;9.43;;;;;;;41.73;26.84;100413.51;1717337;83;21515;-70
2021/08/02 07:41:48;;;;;;;12.73;8.68;;;;;;;41.88;25.99;100415.14;1717100;83;20869;-72
2021/08/02 07:44:16;;;;;;;10.55;9.25;;;;;;;41.99;25.65;100413.83;1717165;83;21422;-69
2021/08/02 07:46:43;;;;;;;8.93;8.13;;;;;;;42.10;25.63;100418.00;1717134;83;21027;-69
2021/08/02 07:49:10;;;;;;;8.88;7.42;;;;;;;42.19;25.48;100410.63;1717504;83;20944;-69
2021/08/02 07:51:37;;;;;;;13.65;5.87;;;;;;;42.29;24.69;100407.38;1717325;83;21966;-71
2021/08/02 07:54:04;;;;;;;8.90;6.05;;;;;;;42.42;24.20;100416.20;1717279;83;20940;-70
2021/08/02 07:56:32;;;;;;;12.13;6.25;;;;;;;42.49;24.19;100406.96;1717224;83;20885;-69
2021/08/02 07:59:00;;;;;;;8.70;6.80;;;;;;;42.55;24.00;100409.83;1717233;83;21035;-67
2021/08/02 08:01:27;;;;;;;8.10;6.78;;;;;;;42.54;24.23;100410.97;1717366;83;20904;-70
2021/08/02 08:03:54;;;;;;;11.55;6.97;;;;;;;42.53;24.81;100407.94;1717286;83;21834;-70
2021/08/02 08:06:21;;;;;;;9.95;7.40;;;;;;;42.39;24.36;100410.72;1717185;83;21078;-68
2021/08/02 08:08:48;;;;;;;9.28;7.30;;;;;;;42.19;24.59;100407.87;1717339;83;20925;-67
2021/08/02 08:11:15;;;;;;;7.85;7.15;;;;;;;41.95;24.47;100412.21;1717264;83;20933;-69
2021/08/02 08:13:43;;;;;;;8.75;7.35;;;;;;;41.58;24.89;100411.33;1717326;83;21054;-69
2021/08/02 08:16:12;;;;;;;10.60;8.30;;;;;;;41.37;25.25;100410.86;1717351;83;20901;-68
2021/08/02 08:18:39;;;;;;;9.65;8.78;;;;;;;41.19;26.12;100413.94;1717196;83;20909;-68
2021/08/02 08:21:06;;;;;;;9.70;8.08;;;;;;;41.16;26.30;100406.30;1717487;83;20987;-77
2021/08/02 08:23:33;;;;;;;10.82;7.62;;;;;;;41.17;26.06;100406.55;1717293;83;20995;-71
2021/08/02 08:26:01;;;;;;;9.35;7.75;;;;;;;41.28;25.82;100406.37;1717193;83;20913;-73
2021/08/02 08:28:28;;;;;;;10.90;7.95;;;;;;;41.40;25.96;100403.92;1710597;83;21701;-72
2021/08/02 08:30:55;;;;;;;8.60;7.83;;;;;;;41.44;25.07;100407.70;1708825;83;20956;-71
2021/08/02 08:33:26;;;;;;;7.22;6.55;;;;;;;41.37;25.41;100404.54;1708660;83;21397;-71
2021/08/02 08:35:50;;;;;;;14.80;10.15;;;;;;;41.33;25.36;100402.14;1708661;84;21465;-70
2021/08/02 08:38:18;;;;;;;6.65;5.87;;;;;;;41.39;24.31;100398.98;1709395;83;20869;-70
2021/08/02 08:40:44;;;;;;;6.65;5.72;;;;;;;41.38;23.79;100397.94;1708854;84;21118;-70
2021/08/02 08:43:11;;;;;;;6.20;5.28;;;;;;;41.37;23.83;100397.66;1646729;83;20980;-69
2021/08/02 08:45:38;;;;;;;8.73;6.15;;;;;;;41.22;23.82;100396.00;1646383;84;20965;-71
2021/08/02 08:48:07;;;;;;;7.70;5.33;;;;;;;41.18;23.77;100388.93;1680798;84;20925;-72
2021/08/02 08:50:40;;;;;;;8.98;5.05;;;;;;;41.21;23.84;100388.88;1708548;84;21502;-71
2021/08/02 08:53:07;;;;;;;7.00;4.78;;;;;;;41.14;23.93;100391.22;1708563;84;21147;-73
2021/08/02 08:55:35;;;;;;;6.42;5.83;;;;;;;41.12;24.38;100385.98;1708616;83;21027;-71
2021/08/02 08:58:03;;;;;;;7.37;4.85;;;;;;;41.16;25.23;100388.98;1708575;84;20901;-71
2021/08/02 09:00:30;;;;;;;6.58;5.33;;;;;;;41.18;23.88;100384.80;1709040;84;20908;-71
2021/08/02 09:02:58;;;;;;;9.03;5.80;;;;;;;41.29;23.04;100379.93;1708595;83;20914;-70
2021/08/02 09:05:33;;;;;;;16.62;6.37;;;;;;;41.30;23.52;100375.23;1680839;84;21145;-70
2021/08/02 09:08:01;;;;;;;10.75;5.33;;;;;;;41.37;23.66;100375.07;1708446;84;20933;-72
2021/08/02 09:10:29;;;;;;;17.05;5.80;;;;;;;41.49;23.84;100381.47;1708428;83;21215;-70
2021/08/02 09:12:58;;;;;;;10.50;5.20;;;;;;;41.60;23.22;100377.42;1708492;84;21514;-72
2021/08/02 09:15:42;;;;;;;10.03;6.03;;;;;;;41.63;23.08;100369.91;1708492;83;20980;-70
2021/08/02 09:18:12;;;;;;;9.43;5.12;;;;;;;41.67;23.38;100369.28;1708604;84;21347;-71
2021/08/02 09:20:39;;;;;;;15.70;5.67;;;;;;;41.71;23.63;100367.55;1708275;83;20937;-70
2021/08/02 09:23:09;;;;;;;9.35;5.30;;;;;;;41.70;23.66;100362.61;1708675;84;21075;-73
2021/08/02 09:25:48;;;;;;;9.10;4.92;;;;;;;41.75;23.94;100358.94;1708767;84;21007;-72
2021/08/02 09:28:18;;;;;;;10.98;4.97;;;;;;;41.74;23.39;100355.94;1711674;83;20921;-73
2021/08/02 09:31:05;;;;;;;10.65;4.90;;;;;;;41.57;23.48;100360.12;1714274;83;21102;-72
2021/08/02 09:33:47;;;;;;;6.67;4.87;;;;;;;41.50;23.52;100356.13;1714102;83;20897;-73
2021/08/02 09:36:14;;;;;;;5.08;4.47;;;;;;;41.56;23.86;100360.45;1714224;83;20999;-72
2021/08/02 09:38:41;;;;;;;5.90;4.10;;;;;;;41.65;23.42;100348.95;1714032;83;21358;-70
2021/08/02 09:41:08;;;;;;;8.03;5.12;;;;;;;41.71;23.16;100344.98;1714210;83;20940;-75
2021/08/02 09:43:35;;;;;;;10.40;4.87;;;;;;;41.73;23.60;100335.02;1714100;83;21987;-71
2021/08/02 09:46:03;;;;;;;7.30;4.90;;;;;;;41.75;23.97;100335.52;1714082;83;20893;-71
2021/08/02 09:48:41;;;;;;;10.30;4.72;;;;;;;41.78;23.58;100333.55;1714134;83;20905;-71
2021/08/02 09:51:13;;;;;;;5.65;4.80;;;;;;;41.77;23.64;100337.41;1714293;83;21503;-71
2021/08/02 09:53:47;;;;;;;;;;;;;;;41.72;23.45;100330.64;1716780;83;20893;-73
2021/08/02 09:56:17;;;;;;;5.42;3.80;;;;;;;41.73;23.84;100323.42;1714334;83;21536;-71
2021/08/02 09:58:45;;;;;;;7.30;4.90;;;;;;;41.77;23.52;100315.37;1713981;83;20909;-69
2021/08/02 10:01:17;;;;;;;9.68;4.65;;;;;;;41.80;23.49;100316.13;1714126;83;20996;-70
2021/08/02 10:03:44;;;;;;;4.70;4.28;;;;;;;41.63;23.31;100309.33;1714234;83;20972;-69
2021/08/02 10:06:15;;;;;;;6.05;4.62;;;;;;;41.56;23.73;100316.39;1714194;83;20869;-70
2021/08/02 10:08:44;;;;;;;10.40;3.75;;;;;;;41.59;23.25;100313.81;1714330;83;20992;-72
2021/08/02 10:11:11;;;;;;;6.87;3.98;;;;;;;41.68;22.74;100311.16;1714040;83;20908;-72
2021/08/02 10:13:43;;;;;;;6.47;4.15;;;;;;;41.80;22.93;100312.83;1714055;83;20921;-70
2021/08/02 10:16:14;;;;;;;4.92;3.37;;;;;;;41.93;23.09;100315.27;1688163;83;20956;-71
2021/08/02 10:18:43;;;;;;;6.40;3.77;;;;;;;42.01;21.91;100309.63;1687686;83;21349;-70
2021/08/02 10:21:11;;;;;;;5.15;3.75;;;;;;;41.93;22.11;100304.82;1714071;83;21548;-72
2021/08/02 10:23:38;;;;;;;8.55;3.80;;;;;;;41.85;22.42;100307.77;1714318;83;20900;-72
2021/08/02 10:26:29;;;;;;;5.92;4.22;;;;;;;41.81;22.87;100308.13;1714057;83;21079;-72
2021/08/02 10:28:59;;;;;;;;;;;;;;;41.83;22.91;100315.52;1712521;83;21007;-72
2021/08/02 10:31:27;;;;;;;6.45;4.10;;;;;;;41.73;22.12;100303.34;1708620;84;20101;-72
2021/08/02 10:33:55;;;;;;;5.05;4.22;;;;;;;41.60;22.55;100304.45;1705805;84;21562;-72
2021/08/02 10:36:23;;;;;;;8.70;4.15;;;;;;;41.60;22.70;100303.07;1708328;83;21447;-70
2021/08/02 10:38:53;;;;;;;7.70;4.60;;;;;;;41.69;22.72;100296.81;1708916;83;20897;-70
2021/08/02 10:41:29;;;;;;;4.95;4.15;;;;;;;41.80;22.99;100302.34;1708521;84;20937;-71
2021/08/02 10:43:58;;;;;;;6.17;4.05;;;;;;;41.87;23.50;100291.74;1708811;84;20999;-72
2021/08/02 10:46:27;;;;;;;6.05;3.72;;;;;;;41.89;23.24;100296.92;1708527;84;22172;-70
2021/08/02 10:48:58;;;;;;;5.30;4.37;;;;;;;41.95;23.32;100292.93;1708012;83;21020;-68
2021/08/02 10:51:24;;;;;;;4.72;3.35;;;;;;;41.96;23.15;100290.45;1706826;84;20873;-71
2021/08/02 10:54:02;;;;;;;4.25;3.42;;;;;;;41.90;23.08;100299.95;1708702;84;20913;-72
2021/08/02 10:56:32;;;;;;;10.50;4.00;;;;;;;41.84;22.65;100296.48;1708423;83;20893;-71
2021/08/02 10:59:00;;;;;;;3.70;3.40;;;;;;;41.81;22.53;100300.67;1708582;84;21222;-72
2021/08/02 11:01:28;;;;;;;5.75;3.52;;;;;;;41.81;22.28;100294.36;1708203;84;20937;-73
2021/08/02 11:03:56;;;;;;;4.53;4.12;;;;;;;41.79;22.04;100296.03;1708790;84;21469;-70
2021/08/02 11:06:23;;;;;;;3.95;3.65;;;;;;;41.76;22.49;100290.34;1708368;84;21032;-71
2021/08/02 11:08:54;;;;;;;5.92;3.55;;;;;;;41.74;22.95;100295.34;1708499;83;20901;-79
2021/08/02 11:11:29;;;;;;;5.28;4.10;;;;;;;41.68;22.83;100293.83;1708513;84;21142;-76
2021/08/02 11:14:10;;;;;;;4.47;3.42;;;;;;;41.66;23.00;100291.94;1708713;83;20949;-75
2021/08/02 11:16:43;;;;;;;6.55;3.80;;;;;;;41.59;23.54;100289.03;1708545;83;20881;-75
2021/08/02 11:19:29;;;;;;;7.25;3.98;;;;;;;41.61;24.27;100274.39;1708458;83;20905;-75
2021/08/02 11:22:02;;;;;;;4.47;3.65;;;;;;;41.66;23.91;100273.47;1707441;84;21391;-76
2021/08/02 11:24:31;;;;;;;6.40;4.20;;;;;;;41.63;24.01;100266.64;1708498;83;22030;-75
2021/08/02 11:27:01;;;;;;;7.70;3.90;;;;;;;41.58;23.58;100271.47;1708386;83;20873;-73